sensor_id;sensor_type;location;lat;lon;timestamp;temperature;humidity
12907;DHT22;6521;50.498;8.474;2023-12-28T00:01:27;6.41;66.07
12907;DHT22;6521;50.498;8.474;2023-12-28T00:03:57;6.39;65.96
12907;DHT22;6521;50.498;8.474;2023-12-28T00:06:28;6.52;65.10
12907;DHT22;6521;50.498;8.474;2023-12-28T00:08:58;6.59;65.08
12907;DHT22;6521;50.498;8.474;2023-12-28T00:11:30;6.63;64.52
12907;DHT22;6521;50.498;8.474;2023-12-28T00:14:01;6.72;63.94
12907;DHT22;6521;50.498;8.474;2023-12-28T00:16:32;6.80;63.90
12907;DHT22;6521;50.498;8.474;2023-12-28T00:19:05;6.82;64.20
12907;DHT22;6521;50.498;8.474;2023-12-28T00:21:35;6.89;64.24
12907;DHT22;6521;50.498;8.474;2023-12-28T00:24:06;6.90;64.14
12907;DHT22;6521;50.498;8.474;2023-12-28T00:26:37;6.93;63.96
12907;DHT22;6521;50.498;8.474;2023-12-28T00:29:08;7.03;63.82
12907;DHT22;6521;50.498;8.474;2023-12-28T00:31:39;7.04;63.98
12907;DHT22;6521;50.498;8.474;2023-12-28T00:34:09;7.04;64.11
12907;DHT22;6521;50.498;8.474;2023-12-28T00:36:40;7.08;63.58
12907;DHT22;6521;50.498;8.474;2023-12-28T00:39:11;7.20;62.60
12907;DHT22;6521;50.498;8.474;2023-12-28T00:41:41;7.21;63.41
12907;DHT22;6521;50.498;8.474;2023-12-28T00:44:12;7.25;63.35
12907;DHT22;6521;50.498;8.474;2023-12-28T00:46:42;7.34;63.04
12907;DHT22;6521;50.498;8.474;2023-12-28T00:49:13;7.32;63.80
12907;DHT22;6521;50.498;8.474;2023-12-28T00:51:44;7.36;63.83
12907;DHT22;6521;50.498;8.474;2023-12-28T00:54:14;7.48;63.47
12907;DHT22;6521;50.498;8.474;2023-12-28T00:56:45;7.56;63.88
12907;DHT22;6521;50.498;8.474;2023-12-28T00:59:16;7.65;64.34
12907;DHT22;6521;50.498;8.474;2023-12-28T01:01:47;7.66;64.61
12907;DHT22;6521;50.498;8.474;2023-12-28T01:04:17;7.68;64.82
12907;DHT22;6521;50.498;8.474;2023-12-28T01:06:49;7.72;65.11
12907;DHT22;6521;50.498;8.474;2023-12-28T01:09:20;7.82;65.53
12907;DHT22;6521;50.498;8.474;2023-12-28T01:11:51;7.86;65.44
12907;DHT22;6521;50.498;8.474;2023-12-28T01:14:22;7.89;65.74
12907;DHT22;6521;50.498;8.474;2023-12-28T01:16:53;7.99;65.79
12907;DHT22;6521;50.498;8.474;2023-12-28T01:19:24;7.94;66.77
12907;DHT22;6521;50.498;8.474;2023-12-28T01:21:55;7.99;67.20
12907;DHT22;6521;50.498;8.474;2023-12-28T01:24:25;8.06;67.61
12907;DHT22;6521;50.498;8.474;2023-12-28T01:26:57;8.10;67.45
12907;DHT22;6521;50.498;8.474;2023-12-28T01:29:27;8.23;67.66
12907;DHT22;6521;50.498;8.474;2023-12-28T01:31:58;8.23;68.00
12907;DHT22;6521;50.498;8.474;2023-12-28T01:34:29;8.26;67.72
12907;DHT22;6521;50.498;8.474;2023-12-28T01:37:00;8.23;68.93
12907;DHT22;6521;50.498;8.474;2023-12-28T01:39:30;8.17;69.39
12907;DHT22;6521;50.498;8.474;2023-12-28T01:42:02;8.23;68.97
12907;DHT22;6521;50.498;8.474;2023-12-28T01:44:32;8.21;69.38
12907;DHT22;6521;50.498;8.474;2023-12-28T01:47:03;8.12;70.04
12907;DHT22;6521;50.498;8.474;2023-12-28T01:49:36;8.07;71.72
12907;DHT22;6521;50.498;8.474;2023-12-28T01:52:07;7.97;73.56
12907;DHT22;6521;50.498;8.474;2023-12-28T01:54:38;7.93;74.56
12907;DHT22;6521;50.498;8.474;2023-12-28T01:57:10;7.82;76.11
12907;DHT22;6521;50.498;8.474;2023-12-28T01:59:41;7.72;77.08
12907;DHT22;6521;50.498;8.474;2023-12-28T02:02:13;7.62;77.50
12907;DHT22;6521;50.498;8.474;2023-12-28T02:04:44;7.62;78.29
12907;DHT22;6521;50.498;8.474;2023-12-28T02:07:15;7.58;79.51
12907;DHT22;6521;50.498;8.474;2023-12-28T02:09:46;7.58;80.27
12907;DHT22;6521;50.498;8.474;2023-12-28T02:12:17;7.56;80.63
12907;DHT22;6521;50.498;8.474;2023-12-28T02:14:48;7.58;80.67
12907;DHT22;6521;50.498;8.474;2023-12-28T02:20:01;7.59;80.68
12907;DHT22;6521;50.498;8.474;2023-12-28T02:22:36;7.55;81.12
12907;DHT22;6521;50.498;8.474;2023-12-28T02:25:13;7.61;80.91
12907;DHT22;6521;50.498;8.474;2023-12-28T02:27:45;7.65;81.32
12907;DHT22;6521;50.498;8.474;2023-12-28T02:30:23;7.62;81.94
12907;DHT22;6521;50.498;8.474;2023-12-28T02:35:39;7.62;83.00
12907;DHT22;6521;50.498;8.474;2023-12-28T02:38:12;7.54;83.20
12907;DHT22;6521;50.498;8.474;2023-12-28T02:40:44;7.52;83.09
12907;DHT22;6521;50.498;8.474;2023-12-28T02:43:16;7.58;83.03
12907;DHT22;6521;50.498;8.474;2023-12-28T02:45:47;7.56;83.34
12907;DHT22;6521;50.498;8.474;2023-12-28T02:48:18;7.65;83.45
12907;DHT22;6521;50.498;8.474;2023-12-28T02:50:48;7.71;83.65
12907;DHT22;6521;50.498;8.474;2023-12-28T02:53:19;7.69;84.05
12907;DHT22;6521;50.498;8.474;2023-12-28T02:55:50;7.69;84.34
12907;DHT22;6521;50.498;8.474;2023-12-28T02:58:20;7.71;84.46
12907;DHT22;6521;50.498;8.474;2023-12-28T03:00:51;7.71;84.90
12907;DHT22;6521;50.498;8.474;2023-12-28T03:03:22;7.73;85.32
12907;DHT22;6521;50.498;8.474;2023-12-28T03:05:53;7.71;85.86
12907;DHT22;6521;50.498;8.474;2023-12-28T03:08:23;7.65;86.24
12907;DHT22;6521;50.498;8.474;2023-12-28T03:10:55;7.58;86.76
12907;DHT22;6521;50.498;8.474;2023-12-28T03:13:26;7.59;86.75
12907;DHT22;6521;50.498;8.474;2023-12-28T03:15:57;7.66;86.47
12907;DHT22;6521;50.498;8.474;2023-12-28T03:18:27;7.63;86.37
12907;DHT22;6521;50.498;8.474;2023-12-28T03:20:58;7.75;85.75
12907;DHT22;6521;50.498;8.474;2023-12-28T03:23:30;7.85;85.32
12907;DHT22;6521;50.498;8.474;2023-12-28T03:26:01;7.93;84.63
12907;DHT22;6521;50.498;8.474;2023-12-28T03:28:32;7.99;84.38
12907;DHT22;6521;50.498;8.474;2023-12-28T03:31:02;7.97;84.21
12907;DHT22;6521;50.498;8.474;2023-12-28T03:33:33;7.99;84.34
12907;DHT22;6521;50.498;8.474;2023-12-28T03:36:04;8.04;83.99
12907;DHT22;6521;50.498;8.474;2023-12-28T03:38:35;8.12;83.55
12907;DHT22;6521;50.498;8.474;2023-12-28T03:41:16;8.14;83.46
12907;DHT22;6521;50.498;8.474;2023-12-28T03:43:47;8.10;83.64
12907;DHT22;6521;50.498;8.474;2023-12-28T03:46:18;8.13;83.49
12907;DHT22;6521;50.498;8.474;2023-12-28T03:48:49;8.13;83.53
12907;DHT22;6521;50.498;8.474;2023-12-28T03:51:19;8.14;83.56
12907;DHT22;6521;50.498;8.474;2023-12-28T03:53:51;8.16;83.49
12907;DHT22;6521;50.498;8.474;2023-12-28T03:56:23;8.19;83.72
12907;DHT22;6521;50.498;8.474;2023-12-28T03:58:54;8.20;83.88
12907;DHT22;6521;50.498;8.474;2023-12-28T04:01:25;8.20;84.11
12907;DHT22;6521;50.498;8.474;2023-12-28T04:03:55;8.17;84.30
12907;DHT22;6521;50.498;8.474;2023-12-28T04:06:26;8.13;84.42
12907;DHT22;6521;50.498;8.474;2023-12-28T04:08:57;8.14;84.59
12907;DHT22;6521;50.498;8.474;2023-12-28T04:11:28;8.13;84.80
12907;DHT22;6521;50.498;8.474;2023-12-28T04:13:59;8.13;84.96
12907;DHT22;6521;50.498;8.474;2023-12-28T04:16:30;8.10;85.18
12907;DHT22;6521;50.498;8.474;2023-12-28T04:19:02;8.12;85.25
12907;DHT22;6521;50.498;8.474;2023-12-28T04:21:32;8.04;85.51
12907;DHT22;6521;50.498;8.474;2023-12-28T04:24:03;8.06;85.47
12907;DHT22;6521;50.498;8.474;2023-12-28T04:26:34;8.09;85.61
12907;DHT22;6521;50.498;8.474;2023-12-28T04:29:06;8.03;85.72
12907;DHT22;6521;50.498;8.474;2023-12-28T04:31:41;8.03;85.96
12907;DHT22;6521;50.498;8.474;2023-12-28T04:34:14;8.03;86.13
12907;DHT22;6521;50.498;8.474;2023-12-28T04:36:45;8.03;86.11
12907;DHT22;6521;50.498;8.474;2023-12-28T04:39:18;8.00;86.34
12907;DHT22;6521;50.498;8.474;2023-12-28T04:41:48;7.99;86.41
12907;DHT22;6521;50.498;8.474;2023-12-28T04:44:20;7.97;86.58
12907;DHT22;6521;50.498;8.474;2023-12-28T04:46:52;7.96;86.65
12907;DHT22;6521;50.498;8.474;2023-12-28T04:49:22;8.00;86.61
12907;DHT22;6521;50.498;8.474;2023-12-28T04:51:53;8.03;86.56
12907;DHT22;6521;50.498;8.474;2023-12-28T04:54:24;7.99;86.74
12907;DHT22;6521;50.498;8.474;2023-12-28T04:56:54;8.00;86.71
12907;DHT22;6521;50.498;8.474;2023-12-28T04:59:25;7.97;86.93
12907;DHT22;6521;50.498;8.474;2023-12-28T05:01:56;8.00;86.81
12907;DHT22;6521;50.498;8.474;2023-12-28T05:04:27;8.00;86.93
12907;DHT22;6521;50.498;8.474;2023-12-28T05:06:57;7.96;87.08
12907;DHT22;6521;50.498;8.474;2023-12-28T05:09:28;7.93;87.23
12907;DHT22;6521;50.498;8.474;2023-12-28T05:11:59;7.94;87.23
12907;DHT22;6521;50.498;8.474;2023-12-28T05:14:29;7.93;87.29
12907;DHT22;6521;50.498;8.474;2023-12-28T05:17:00;7.99;87.22
12907;DHT22;6521;50.498;8.474;2023-12-28T05:19:30;7.93;87.17
12907;DHT22;6521;50.498;8.474;2023-12-28T05:22:01;7.92;87.31
12907;DHT22;6521;50.498;8.474;2023-12-28T05:24:37;7.94;87.01
12907;DHT22;6521;50.498;8.474;2023-12-28T05:27:07;7.93;87.26
12907;DHT22;6521;50.498;8.474;2023-12-28T05:29:38;7.90;87.25
12907;DHT22;6521;50.498;8.474;2023-12-28T05:32:08;7.99;87.05
12907;DHT22;6521;50.498;8.474;2023-12-28T05:34:39;7.90;87.20
12907;DHT22;6521;50.498;8.474;2023-12-28T05:37:10;7.90;87.36
12907;DHT22;6521;50.498;8.474;2023-12-28T05:39:40;7.94;87.17
12907;DHT22;6521;50.498;8.474;2023-12-28T05:42:11;7.93;87.09
12907;DHT22;6521;50.498;8.474;2023-12-28T05:44:42;7.96;87.35
12907;DHT22;6521;50.498;8.474;2023-12-28T05:47:14;7.96;87.25
12907;DHT22;6521;50.498;8.474;2023-12-28T05:49:45;7.97;87.10
12907;DHT22;6521;50.498;8.474;2023-12-28T05:52:15;7.97;87.14
12907;DHT22;6521;50.498;8.474;2023-12-28T05:54:49;7.92;87.11
12907;DHT22;6521;50.498;8.474;2023-12-28T05:57:19;8.03;87.05
12907;DHT22;6521;50.498;8.474;2023-12-28T05:59:50;7.99;87.05
12907;DHT22;6521;50.498;8.474;2023-12-28T06:02:21;8.04;86.93
12907;DHT22;6521;50.498;8.474;2023-12-28T06:04:51;8.03;86.82
12907;DHT22;6521;50.498;8.474;2023-12-28T06:07:22;8.06;86.68
12907;DHT22;6521;50.498;8.474;2023-12-28T06:09:53;8.04;86.69
12907;DHT22;6521;50.498;8.474;2023-12-28T06:12:23;7.99;86.70
12907;DHT22;6521;50.498;8.474;2023-12-28T06:14:54;8.03;86.57
12907;DHT22;6521;50.498;8.474;2023-12-28T06:17:25;8.04;86.22
12907;DHT22;6521;50.498;8.474;2023-12-28T06:19:55;8.06;86.05
12907;DHT22;6521;50.498;8.474;2023-12-28T06:22:26;8.04;85.80
12907;DHT22;6521;50.498;8.474;2023-12-28T06:24:57;8.12;85.60
12907;DHT22;6521;50.498;8.474;2023-12-28T06:27:28;8.10;85.61
12907;DHT22;6521;50.498;8.474;2023-12-28T06:29:59;8.00;85.63
12907;DHT22;6521;50.498;8.474;2023-12-28T06:32:30;7.99;85.71
12907;DHT22;6521;50.498;8.474;2023-12-28T06:35:01;7.96;85.74
12907;DHT22;6521;50.498;8.474;2023-12-28T06:37:31;7.85;85.85
12907;DHT22;6521;50.498;8.474;2023-12-28T06:40:02;7.79;86.10
12907;DHT22;6521;50.498;8.474;2023-12-28T06:42:33;7.85;86.07
12907;DHT22;6521;50.498;8.474;2023-12-28T06:45:04;7.82;86.10
12907;DHT22;6521;50.498;8.474;2023-12-28T06:47:35;7.79;86.14
12907;DHT22;6521;50.498;8.474;2023-12-28T06:50:06;7.85;86.04
12907;DHT22;6521;50.498;8.474;2023-12-28T06:52:37;7.87;85.88
12907;DHT22;6521;50.498;8.474;2023-12-28T06:55:08;7.78;86.05
12907;DHT22;6521;50.498;8.474;2023-12-28T06:57:38;7.78;86.11
12907;DHT22;6521;50.498;8.474;2023-12-28T07:00:09;7.75;86.10
12907;DHT22;6521;50.498;8.474;2023-12-28T07:02:43;7.76;86.14
12907;DHT22;6521;50.498;8.474;2023-12-28T07:05:13;7.72;86.11
12907;DHT22;6521;50.498;8.474;2023-12-28T07:07:44;7.76;85.90
12907;DHT22;6521;50.498;8.474;2023-12-28T07:10:15;7.75;85.85
12907;DHT22;6521;50.498;8.474;2023-12-28T07:12:45;7.66;86.02
12907;DHT22;6521;50.498;8.474;2023-12-28T07:15:16;7.68;85.96
12907;DHT22;6521;50.498;8.474;2023-12-28T07:17:47;7.58;86.07
12907;DHT22;6521;50.498;8.474;2023-12-28T07:20:17;7.69;85.65
12907;DHT22;6521;50.498;8.474;2023-12-28T07:22:48;7.65;85.60
12907;DHT22;6521;50.498;8.474;2023-12-28T07:25:19;7.62;85.62
12907;DHT22;6521;50.498;8.474;2023-12-28T07:27:49;7.58;85.76
12907;DHT22;6521;50.498;8.474;2023-12-28T07:30:20;7.56;85.66
12907;DHT22;6521;50.498;8.474;2023-12-28T07:32:53;7.55;85.65
12907;DHT22;6521;50.498;8.474;2023-12-28T07:35:23;7.56;85.36
12907;DHT22;6521;50.498;8.474;2023-12-28T07:37:54;7.56;85.43
12907;DHT22;6521;50.498;8.474;2023-12-28T07:40:25;7.52;85.64
12907;DHT22;6521;50.498;8.474;2023-12-28T07:42:55;7.61;85.25
12907;DHT22;6521;50.498;8.474;2023-12-28T07:45:26;7.58;85.13
12907;DHT22;6521;50.498;8.474;2023-12-28T07:47:59;7.51;85.08
12907;DHT22;6521;50.498;8.474;2023-12-28T07:50:29;7.50;85.16
12907;DHT22;6521;50.498;8.474;2023-12-28T07:53:00;7.52;85.04
12907;DHT22;6521;50.498;8.474;2023-12-28T07:55:31;7.51;85.11
12907;DHT22;6521;50.498;8.474;2023-12-28T07:58:01;7.55;84.95
12907;DHT22;6521;50.498;8.474;2023-12-28T08:00:32;7.51;85.03
12907;DHT22;6521;50.498;8.474;2023-12-28T08:03:03;7.47;85.08
12907;DHT22;6521;50.498;8.474;2023-12-28T08:05:33;7.54;84.93
12907;DHT22;6521;50.498;8.474;2023-12-28T08:08:04;7.50;84.71
12907;DHT22;6521;50.498;8.474;2023-12-28T08:10:35;7.47;84.84
12907;DHT22;6521;50.498;8.474;2023-12-28T08:13:05;7.48;84.83
12907;DHT22;6521;50.498;8.474;2023-12-28T08:15:36;7.61;84.44
12907;DHT22;6521;50.498;8.474;2023-12-28T08:18:07;7.55;84.57
12907;DHT22;6521;50.498;8.474;2023-12-28T08:20:38;7.56;84.62
12907;DHT22;6521;50.498;8.474;2023-12-28T08:23:11;7.58;84.40
12907;DHT22;6521;50.498;8.474;2023-12-28T08:25:42;7.54;84.52
12907;DHT22;6521;50.498;8.474;2023-12-28T08:28:12;7.54;84.59
12907;DHT22;6521;50.498;8.474;2023-12-28T08:30:43;7.54;84.50
12907;DHT22;6521;50.498;8.474;2023-12-28T08:33:14;7.48;84.64
12907;DHT22;6521;50.498;8.474;2023-12-28T08:35:45;7.54;84.48
12907;DHT22;6521;50.498;8.474;2023-12-28T08:38:16;7.51;84.51
12907;DHT22;6521;50.498;8.474;2023-12-28T08:40:47;7.52;84.44
12907;DHT22;6521;50.498;8.474;2023-12-28T08:43:17;7.61;84.26
12907;DHT22;6521;50.498;8.474;2023-12-28T08:45:48;7.56;84.25
12907;DHT22;6521;50.498;8.474;2023-12-28T08:48:19;7.56;84.22
12907;DHT22;6521;50.498;8.474;2023-12-28T08:50:50;7.52;84.40
12907;DHT22;6521;50.498;8.474;2023-12-28T08:53:21;7.50;84.55
12907;DHT22;6521;50.498;8.474;2023-12-28T08:55:52;7.54;84.53
12907;DHT22;6521;50.498;8.474;2023-12-28T08:58:22;7.54;84.46
12907;DHT22;6521;50.498;8.474;2023-12-28T09:00:53;7.62;84.30
12907;DHT22;6521;50.498;8.474;2023-12-28T09:03:26;7.62;84.21
12907;DHT22;6521;50.498;8.474;2023-12-28T09:05:57;7.54;84.32
12907;DHT22;6521;50.498;8.474;2023-12-28T09:08:27;7.56;84.24
12907;DHT22;6521;50.498;8.474;2023-12-28T09:10:58;7.68;83.96
12907;DHT22;6521;50.498;8.474;2023-12-28T09:13:29;7.75;83.55
12907;DHT22;6521;50.498;8.474;2023-12-28T09:15:59;7.78;83.42
12907;DHT22;6521;50.498;8.474;2023-12-28T09:18:30;7.81;83.14
12907;DHT22;6521;50.498;8.474;2023-12-28T09:21:01;7.85;82.84
12907;DHT22;6521;50.498;8.474;2023-12-28T09:23:32;7.83;83.02
12907;DHT22;6521;50.498;8.474;2023-12-28T09:26:04;7.87;83.07
12907;DHT22;6521;50.498;8.474;2023-12-28T09:28:35;7.89;83.10
12907;DHT22;6521;50.498;8.474;2023-12-28T09:31:06;8.07;82.38
12907;DHT22;6521;50.498;8.474;2023-12-28T09:33:37;8.06;82.44
12907;DHT22;6521;50.498;8.474;2023-12-28T09:36:09;8.16;82.24
12907;DHT22;6521;50.498;8.474;2023-12-28T09:38:40;8.20;82.29
12907;DHT22;6521;50.498;8.474;2023-12-28T09:41:15;8.20;82.14
12907;DHT22;6521;50.498;8.474;2023-12-28T09:43:54;8.20;82.30
12907;DHT22;6521;50.498;8.474;2023-12-28T09:46:25;8.24;82.13
12907;DHT22;6521;50.498;8.474;2023-12-28T09:48:58;8.41;81.51
12907;DHT22;6521;50.498;8.474;2023-12-28T09:51:28;8.64;80.58
12907;DHT22;6521;50.498;8.474;2023-12-28T09:53:59;8.83;79.85
12907;DHT22;6521;50.498;8.474;2023-12-28T09:56:33;9.03;79.40
12907;DHT22;6521;50.498;8.474;2023-12-28T09:59:06;9.22;78.41
12907;DHT22;6521;50.498;8.474;2023-12-28T10:01:37;9.41;77.15
12907;DHT22;6521;50.498;8.474;2023-12-28T10:04:08;9.48;77.21
12907;DHT22;6521;50.498;8.474;2023-12-28T10:06:39;9.52;77.65
12907;DHT22;6521;50.498;8.474;2023-12-28T10:09:10;9.71;76.48
12907;DHT22;6521;50.498;8.474;2023-12-28T10:11:41;9.95;75.81
12907;DHT22;6521;50.498;8.474;2023-12-28T10:14:11;10.10;74.74
12907;DHT22;6521;50.498;8.474;2023-12-28T10:16:42;10.05;74.69
12907;DHT22;6521;50.498;8.474;2023-12-28T10:19:13;10.28;74.26
12907;DHT22;6521;50.498;8.474;2023-12-28T10:21:44;10.39;73.15
12907;DHT22;6521;50.498;8.474;2023-12-28T10:24:15;10.66;72.98
12907;DHT22;6521;50.498;8.474;2023-12-28T10:26:45;10.93;70.99
12907;DHT22;6521;50.498;8.474;2023-12-28T10:29:16;10.98;70.15
12907;DHT22;6521;50.498;8.474;2023-12-28T10:31:47;11.31;70.15
12907;DHT22;6521;50.498;8.474;2023-12-28T10:34:21;11.55;68.47
12907;DHT22;6521;50.498;8.474;2023-12-28T10:36:52;11.67;67.82
12907;DHT22;6521;50.498;8.474;2023-12-28T10:39:24;11.76;66.93
12907;DHT22;6521;50.498;8.474;2023-12-28T10:41:57;11.87;67.19
12907;DHT22;6521;50.498;8.474;2023-12-28T10:44:31;11.85;66.42
12907;DHT22;6521;50.498;8.474;2023-12-28T10:47:07;11.93;65.97
12907;DHT22;6521;50.498;8.474;2023-12-28T10:49:43;11.93;66.31
12907;DHT22;6521;50.498;8.474;2023-12-28T10:52:16;12.01;66.03
12907;DHT22;6521;50.498;8.474;2023-12-28T10:54:53;11.97;66.20
12907;DHT22;6521;50.498;8.474;2023-12-28T10:57:29;11.80;66.87
12907;DHT22;6521;50.498;8.474;2023-12-28T11:00:11;11.97;66.14
12907;DHT22;6521;50.498;8.474;2023-12-28T11:02:45;11.91;65.53
12907;DHT22;6521;50.498;8.474;2023-12-28T11:05:16;11.83;65.41
12907;DHT22;6521;50.498;8.474;2023-12-28T11:07:50;11.96;65.91
12907;DHT22;6521;50.498;8.474;2023-12-28T11:10:24;11.96;64.96
12907;DHT22;6521;50.498;8.474;2023-12-28T11:12:56;12.23;64.56
12907;DHT22;6521;50.498;8.474;2023-12-28T11:15:29;12.40;64.17
12907;DHT22;6521;50.498;8.474;2023-12-28T11:18:01;12.31;63.25
12907;DHT22;6521;50.498;8.474;2023-12-28T11:20:33;12.18;64.90
12907;DHT22;6521;50.498;8.474;2023-12-28T11:23:04;12.40;64.36
12907;DHT22;6521;50.498;8.474;2023-12-28T11:25:35;12.44;63.37
12907;DHT22;6521;50.498;8.474;2023-12-28T11:28:12;12.08;64.68
12907;DHT22;6521;50.498;8.474;2023-12-28T11:30:46;12.13;64.92
12907;DHT22;6521;50.498;8.474;2023-12-28T11:33:18;12.01;64.59
12907;DHT22;6521;50.498;8.474;2023-12-28T11:35:52;11.98;64.55
12907;DHT22;6521;50.498;8.474;2023-12-28T11:38:23;12.07;64.40
12907;DHT22;6521;50.498;8.474;2023-12-28T11:40:55;12.06;63.87
12907;DHT22;6521;50.498;8.474;2023-12-28T11:43:27;12.17;64.33
12907;DHT22;6521;50.498;8.474;2023-12-28T11:46:03;12.21;64.46
12907;DHT22;6521;50.498;8.474;2023-12-28T11:48:36;12.33;64.15
12907;DHT22;6521;50.498;8.474;2023-12-28T11:51:08;12.35;63.08
12907;DHT22;6521;50.498;8.474;2023-12-28T11:53:40;12.37;62.73
12907;DHT22;6521;50.498;8.474;2023-12-28T11:56:15;12.40;62.57
12907;DHT22;6521;50.498;8.474;2023-12-28T11:58:46;12.52;62.94
12907;DHT22;6521;50.498;8.474;2023-12-28T12:01:18;12.51;63.20
12907;DHT22;6521;50.498;8.474;2023-12-28T12:03:49;12.45;62.31
12907;DHT22;6521;50.498;8.474;2023-12-28T12:06:20;12.51;62.96
12907;DHT22;6521;50.498;8.474;2023-12-28T12:08:51;12.58;61.52
12907;DHT22;6521;50.498;8.474;2023-12-28T12:11:21;12.41;61.66
12907;DHT22;6521;50.498;8.474;2023-12-28T12:13:53;12.31;62.13
12907;DHT22;6521;50.498;8.474;2023-12-28T12:16:23;12.16;62.64
12907;DHT22;6521;50.498;8.474;2023-12-28T12:18:54;12.14;63.20
12907;DHT22;6521;50.498;8.474;2023-12-28T12:21:27;12.14;62.10
12907;DHT22;6521;50.498;8.474;2023-12-28T12:23:57;12.03;61.74
12907;DHT22;6521;50.498;8.474;2023-12-28T12:26:29;11.97;62.84
12907;DHT22;6521;50.498;8.474;2023-12-28T12:29:00;12.03;63.26
12907;DHT22;6521;50.498;8.474;2023-12-28T12:31:31;12.20;62.31
12907;DHT22;6521;50.498;8.474;2023-12-28T12:34:02;12.28;63.57
12907;DHT22;6521;50.498;8.474;2023-12-28T12:36:33;12.24;61.79
12907;DHT22;6521;50.498;8.474;2023-12-28T12:39:04;12.24;61.23
12907;DHT22;6521;50.498;8.474;2023-12-28T12:41:36;12.14;63.29
12907;DHT22;6521;50.498;8.474;2023-12-28T12:44:08;12.10;61.96
12907;DHT22;6521;50.498;8.474;2023-12-28T12:46:40;12.06;61.24
12907;DHT22;6521;50.498;8.474;2023-12-28T12:49:11;11.91;62.14
12907;DHT22;6521;50.498;8.474;2023-12-28T12:51:41;11.85;63.15
12907;DHT22;6521;50.498;8.474;2023-12-28T12:54:12;11.70;61.95
12907;DHT22;6521;50.498;8.474;2023-12-28T12:56:43;11.47;62.81
12907;DHT22;6521;50.498;8.474;2023-12-28T12:59:16;11.45;63.06
12907;DHT22;6521;50.498;8.474;2023-12-28T13:01:47;11.26;62.94
12907;DHT22;6521;50.498;8.474;2023-12-28T13:04:23;11.51;62.60
12907;DHT22;6521;50.498;8.474;2023-12-28T13:06:53;11.55;62.86
12907;DHT22;6521;50.498;8.474;2023-12-28T13:09:24;11.52;61.73
12907;DHT22;6521;50.498;8.474;2023-12-28T13:11:56;11.46;62.35
12907;DHT22;6521;50.498;8.474;2023-12-28T13:14:27;11.42;62.04
12907;DHT22;6521;50.498;8.474;2023-12-28T13:16:59;11.45;61.84
12907;DHT22;6521;50.498;8.474;2023-12-28T13:19:30;11.43;61.95
12907;DHT22;6521;50.498;8.474;2023-12-28T13:22:00;11.34;61.41
12907;DHT22;6521;50.498;8.474;2023-12-28T13:24:31;11.35;62.65
12907;DHT22;6521;50.498;8.474;2023-12-28T13:27:02;11.45;62.63
12907;DHT22;6521;50.498;8.474;2023-12-28T13:29:33;11.49;62.74
12907;DHT22;6521;50.498;8.474;2023-12-28T13:32:04;11.39;62.71
12907;DHT22;6521;50.498;8.474;2023-12-28T13:34:37;11.46;62.62
12907;DHT22;6521;50.498;8.474;2023-12-28T13:37:08;11.58;62.48
12907;DHT22;6521;50.498;8.474;2023-12-28T13:39:39;11.49;61.81
12907;DHT22;6521;50.498;8.474;2023-12-28T13:42:10;11.47;62.19
12907;DHT22;6521;50.498;8.474;2023-12-28T13:44:40;11.52;62.54
12907;DHT22;6521;50.498;8.474;2023-12-28T13:47:12;11.49;62.22
12907;DHT22;6521;50.498;8.474;2023-12-28T13:49:43;11.40;62.40
12907;DHT22;6521;50.498;8.474;2023-12-28T13:52:13;11.35;62.82
12907;DHT22;6521;50.498;8.474;2023-12-28T13:54:44;11.28;63.35
12907;DHT22;6521;50.498;8.474;2023-12-28T13:57:15;11.17;63.19
12907;DHT22;6521;50.498;8.474;2023-12-28T13:59:45;11.12;63.98
12907;DHT22;6521;50.498;8.474;2023-12-28T14:02:16;11.04;63.80
12907;DHT22;6521;50.498;8.474;2023-12-28T14:04:46;10.98;64.06
12907;DHT22;6521;50.498;8.474;2023-12-28T14:07:17;10.97;64.49
12907;DHT22;6521;50.498;8.474;2023-12-28T14:09:48;10.96;64.78
12907;DHT22;6521;50.498;8.474;2023-12-28T14:12:18;10.85;65.38
12907;DHT22;6521;50.498;8.474;2023-12-28T14:14:49;10.84;65.25
12907;DHT22;6521;50.498;8.474;2023-12-28T14:17:20;10.78;65.98
12907;DHT22;6521;50.498;8.474;2023-12-28T14:19:51;10.71;65.85
12907;DHT22;6521;50.498;8.474;2023-12-28T14:22:22;10.67;65.97
12907;DHT22;6521;50.498;8.474;2023-12-28T14:24:53;10.68;66.15
12907;DHT22;6521;50.498;8.474;2023-12-28T14:27:24;10.67;66.17
12907;DHT22;6521;50.498;8.474;2023-12-28T14:29:55;10.66;66.36
12907;DHT22;6521;50.498;8.474;2023-12-28T14:32:26;10.61;66.69
12907;DHT22;6521;50.498;8.474;2023-12-28T14:34:57;10.64;66.29
12907;DHT22;6521;50.498;8.474;2023-12-28T14:37:27;10.63;66.40
12907;DHT22;6521;50.498;8.474;2023-12-28T14:39:58;10.56;66.53
12907;DHT22;6521;50.498;8.474;2023-12-28T14:42:29;10.53;66.86
12907;DHT22;6521;50.498;8.474;2023-12-28T14:45:00;10.55;67.08
12907;DHT22;6521;50.498;8.474;2023-12-28T14:47:32;10.47;67.06
12907;DHT22;6521;50.498;8.474;2023-12-28T14:50:03;10.35;67.94
12907;DHT22;6521;50.498;8.474;2023-12-28T14:52:36;10.32;68.22
12907;DHT22;6521;50.498;8.474;2023-12-28T14:55:13;10.26;68.59
12907;DHT22;6521;50.498;8.474;2023-12-28T14:57:43;10.20;68.58
12907;DHT22;6521;50.498;8.474;2023-12-28T15:00:15;10.20;68.31
12907;DHT22;6521;50.498;8.474;2023-12-28T15:02:46;10.15;68.87
12907;DHT22;6521;50.498;8.474;2023-12-28T15:05:16;10.09;69.12
12907;DHT22;6521;50.498;8.474;2023-12-28T15:07:47;10.08;69.52
12907;DHT22;6521;50.498;8.474;2023-12-28T15:10:19;9.99;69.62
12907;DHT22;6521;50.498;8.474;2023-12-28T15:12:50;9.87;70.14
12907;DHT22;6521;50.498;8.474;2023-12-28T15:15:21;9.85;70.57
12907;DHT22;6521;50.498;8.474;2023-12-28T15:17:52;9.77;71.29
12907;DHT22;6521;50.498;8.474;2023-12-28T15:20:23;9.82;71.43
12907;DHT22;6521;50.498;8.474;2023-12-28T15:22:54;9.77;71.86
12907;DHT22;6521;50.498;8.474;2023-12-28T15:25:24;9.80;72.15
12907;DHT22;6521;50.498;8.474;2023-12-28T15:27:55;9.84;72.07
12907;DHT22;6521;50.498;8.474;2023-12-28T15:30:26;9.80;72.33
12907;DHT22;6521;50.498;8.474;2023-12-28T15:32:57;9.78;72.66
12907;DHT22;6521;50.498;8.474;2023-12-28T15:35:28;9.74;73.01
12907;DHT22;6521;50.498;8.474;2023-12-28T15:37:58;9.70;73.46
12907;DHT22;6521;50.498;8.474;2023-12-28T15:40:29;9.65;73.61
12907;DHT22;6521;50.498;8.474;2023-12-28T15:43:00;9.68;73.75
12907;DHT22;6521;50.498;8.474;2023-12-28T15:45:30;9.65;73.98
12907;DHT22;6521;50.498;8.474;2023-12-28T15:48:03;9.62;74.37
12907;DHT22;6521;50.498;8.474;2023-12-28T15:50:34;9.64;74.37
12907;DHT22;6521;50.498;8.474;2023-12-28T15:53:04;9.58;74.49
12907;DHT22;6521;50.498;8.474;2023-12-28T15:55:35;9.51;74.97
12907;DHT22;6521;50.498;8.474;2023-12-28T15:58:05;9.47;75.21
12907;DHT22;6521;50.498;8.474;2023-12-28T16:00:36;9.50;74.98
12907;DHT22;6521;50.498;8.474;2023-12-28T16:03:07;9.47;75.22
12907;DHT22;6521;50.498;8.474;2023-12-28T16:05:37;9.40;75.52
12907;DHT22;6521;50.498;8.474;2023-12-28T16:08:08;9.27;75.90
12907;DHT22;6521;50.498;8.474;2023-12-28T16:10:39;9.30;75.98
12907;DHT22;6521;50.498;8.474;2023-12-28T16:13:10;9.33;76.01
12907;DHT22;6521;50.498;8.474;2023-12-28T16:15:41;9.27;76.30
12907;DHT22;6521;50.498;8.474;2023-12-28T16:18:12;9.19;76.65
12907;DHT22;6521;50.498;8.474;2023-12-28T16:20:43;9.13;76.70
12907;DHT22;6521;50.498;8.474;2023-12-28T16:23:14;9.10;76.86
12907;DHT22;6521;50.498;8.474;2023-12-28T16:25:45;9.03;77.00
12907;DHT22;6521;50.498;8.474;2023-12-28T16:28:16;9.00;77.04